Main page
METAR-TAF:

METAR-TAF

Airports :

La Tontouta International Airport

Nouméa / La Tontouta, New Caledonia

latitude: 22-01S, longitude: 166-13E, elevation: 16 m

Current weather observation

The report was made 42 minutes ago, at 16:00 UTC
Wind 2 kt from the Southeast
Temperature 15°C
Humidity 88%
Pressure 1017 hPa
Visibility 10 km or more
no clouds below 1500 m and no cumulonimbus

METAR: NWWW 211600Z AUTO 13002KT CAVOK 15/13 Q1017 TEMPO 3000 BR

Time: 03:42 (16:42 UTC)

Forecast

The report was made 5 hours and 42 minutes ago, at 11:00 UTC
Forecast valid from 21 at 12 UTC to 22 at 12 UTC
Wind 2 kt from variable directions
Visibility 10 km or more
Few clouds at a height of 3000 ft
Scattered clouds at a height of 4000 ft
Probability 40%
from 21 at 15 UTC to 21 at 20 UTC
Visibility: 3000 m
mist,

TAF: NWWW 211100Z 2112/2212 VRB02KT 9999 FEW030 SCT040 PROB40 2115/2120 3000 BR

Weather observations and forecasts of more than 4000 airports (METAR and TAF reports).

The available stations are represented by yellow and red dots on the map.

Hover mouse over dot to see the name of the station.

Then click to see weather observations and forecasts.

To change the map : click on the green buttons with a black cross to zoom in, on the green button with a dash to zoom out, or on the green arrows for adjacent maps.


METAR-TAF: